Time;durP1;ratioP1;P1;durP2;ratioP2;P2;SDS_P1;SDS_P2;PMS_P1;PMS_P2;Temp;Humidity;BMP_temperature;BMP_pressure;BME280_temperature;BME280_humidity;BME280_pressure;Samples;Min_cycle;Max_cycle;Signal;HPM_P1;HPM_P2
2022/12/17 13:06:24;;;;;;;;;;;;;;;;;;5029116;28;20000;-72
2022/12/17 13:08:49;;;;;;;;;;;;;;;;;;5029766;28;20000;-69
2022/12/17 13:11:15;;;;;;;;;;;;;;;;;;5029745;28;19917;-69
2022/12/17 13:13:54;;;;;;;;;;;;;;;;;;5028645;28;19921;-70
2022/12/17 13:16:20;;;;;;;;;;;;;;;;;;5028726;28;20446;-69
2022/12/17 13:18:46;;;;;;;;;;;;;;;;;;5029090;28;19921;-69
2022/12/17 13:21:12;;;;;;;;;;;;;;;;;;5028624;28;19960;-70
2022/12/17 13:23:38;;;;;;;;;;;;;;;;;;5029283;28;19956;-70
2022/12/17 13:26:04;;;;;;;;;;;;;;;;;;5028880;28;19932;-69
2022/12/17 13:28:30;;;;;;;;;;;;;;;;;;5028399;28;19917;-70
2022/12/17 13:30:56;;;;;;;;;;;;;;;;;;5027698;28;19959;-70
2022/12/17 13:33:21;;;;;;;;;;;;;;;;;;5029608;28;19913;-69
2022/12/17 13:35:47;;;;;;;;;;;;;;;;;;5028833;28;19913;-70
2022/12/17 13:38:13;;;;;;;;;;;;;;;;;;5029215;28;19968;-69
2022/12/17 13:40:39;;;;;;;;;;;;;;;;;;5029327;28;20439;-70
2022/12/17 13:43:05;;;;;;;;;;;;;;;;;;5028334;28;19924;-69
2022/12/17 13:45:31;;;;;;;;;;;;;;;;;;5028806;28;19923;-68
2022/12/17 13:47:57;;;;;;;;;;;;;;;;;;5028839;28;19913;-69
2022/12/17 13:50:23;;;;;;;;;;;;;;;;;;5028836;28;19983;-69
2022/12/17 13:52:49;;;;;;;;;;;;;;;;;;5029044;28;20007;-70
2022/12/17 13:55:14;;;;;;;;;;;;;;;;;;5028880;28;19914;-70
2022/12/17 13:57:40;;;;;;;;;;;;;;;;;;5027720;28;19929;-70
2022/12/17 14:00:06;;;;;;;;;;;;;;;;;;5028797;28;20387;-68
2022/12/17 14:02:32;;;;;;;;;;;;;;;;;;5024802;28;19917;-68
2022/12/17 14:04:58;;;;;;;;;;;;;;;;;;5028631;28;20004;-69
2022/12/17 14:07:24;;;;;;;;;;;;;;;;;;5027984;28;20306;-69
2022/12/17 14:09:50;;;;;;;;;;;;;;;;;;5025128;28;20276;-69
2022/12/17 14:12:22;;;;;;;;;;;;;;;;;;5028115;28;19917;-68
2022/12/17 14:14:48;;;;;;;;;;;;;;;;;;5028458;28;20000;-69
2022/12/17 14:17:14;;;;;;;;;;;;;;;;;;5031602;28;20008;-69
2022/12/17 14:19:40;;;;;;;;;;;;;;;;;;5028325;28;19924;-69
2022/12/17 14:22:06;;;;;;;;;;;;;;;;;;5025569;28;19924;-70
2022/12/17 14:24:32;;;;;;;;;;;;;;;;;;5028725;28;19967;-70
2022/12/17 14:26:58;;;;;;;;;;;;;;;;;;5028780;28;20020;-69
2022/12/17 14:29:24;;;;;;;;;;;;;;;;;;5028496;28;19921;-68
2022/12/17 14:31:49;;;;;;;;;;;;;;;;;;5028301;28;19913;-69
2022/12/17 14:34:15;;;;;;;;;;;;;;;;;;5029122;28;19931;-67
2022/12/17 14:36:41;;;;;;;;;;;;;;;;;;5028356;28;19917;-69
2022/12/17 14:39:10;;;;;;;;;;;;;;;;;;5028723;28;20010;-69
2022/12/17 14:44:20;;;;;;;;;;;;;;;;;;5026491;28;19959;-66
2022/12/17 14:46:46;;;;;;;;;;;;;;;;;;5027806;28;19917;-69
2022/12/17 14:49:12;;;;;;;;;;;;;;;;;;5028122;28;19924;-69
2022/12/17 14:51:38;;;;;;;;;;;;;;;;;;5028341;28;19971;-69
2022/12/17 14:54:04;;;;;;;;;;;;;;;;;;5028066;28;19979;-69
2022/12/17 14:56:30;;;;;;;;;;;;;;;;;;5036868;28;19931;-69
2022/12/17 14:58:56;;;;;;;;;;;;;;;;;;5025637;28;19939;-69
2022/12/17 15:01:21;;;;;;;;;;;;;;;;;;5027476;28;19955;-69
2022/12/17 15:03:47;;;;;;;;;;;;;;;;;;5028026;28;20342;-68
2022/12/17 15:06:13;;;;;;;;;;;;;;;;;;5039297;28;19917;-69
2022/12/17 15:08:39;;;;;;;;;;;;;;;;;;5027666;28;20433;-68
2022/12/17 15:11:05;;;;;;;;;;;;;;;;;;5027026;28;19923;-68
2022/12/17 15:13:31;;;;;;;;;;;;;;;;;;5026770;28;20279;-69
2022/12/17 15:15:57;;;;;;;;;;;;;;;;;;5027697;28;19917;-69
2022/12/17 15:18:23;;;;;;;;;;;;;;;;;;5027628;28;20374;-69
2022/12/17 15:20:48;;;;;;;;;;;;;;;;;;5027608;28;19917;-69
2022/12/17 15:23:14;;;;;;;;;;;;;;;;;;5027958;28;20378;-70
2022/12/17 15:25:40;;;;;;;;;;;;;;;;;;5027619;28;19917;-69
2022/12/17 15:28:06;;;;;;;;;;;;;;;;;;5027575;28;20682;-68
2022/12/17 15:30:32;;;;;;;;;;;;;;;;;;5029691;28;20062;-69
2022/12/17 15:32:58;;;;;;;;;;;;;;;;;;5026944;28;19955;-69
2022/12/17 15:35:24;;;;;;;;;;;;;;;;;;5025289;28;19928;-69
2022/12/17 15:37:50;;;;;;;;;;;;;;;;;;5026349;28;19931;-69
2022/12/17 15:40:16;;;;;;;;;;;;;;;;;;5027192;28;20008;-69
2022/12/17 15:45:26;;;;;;;;;;;;;;;;;;5026778;28;20008;-68
2022/12/17 15:47:52;;;;;;;;;;;;;;;;;;5026457;28;19972;-68
2022/12/17 15:50:18;;;;;;;;;;;;;;;;;;5026510;28;19917;-66
2022/12/17 15:52:44;;;;;;;;;;;;;;;;;;5026621;28;19913;-67
2022/12/17 15:55:10;;;;;;;;;;;;;;;;;;5026038;28;19913;-68
2022/12/17 15:57:36;;;;;;;;;;;;;;;;;;5025885;28;19944;-68
2022/12/17 16:00:02;;;;;;;;;;;;;;;;;;5026464;28;19913;-67
2022/12/17 16:02:28;;;;;;;;;;;;;;;;;;5027110;28;19984;-67
2022/12/17 16:04:54;;;;;;;;;;;;;;;;;;5025595;28;20362;-65
2022/12/17 16:07:20;;;;;;;;;;;;;;;;;;5027112;28;19914;-67
2022/12/17 16:09:46;;;;;;;;;;;;;;;;;;5026450;28;19917;-67
2022/12/17 16:12:12;;;;;;;;;;;;;;;;;;5025505;28;19924;-69
2022/12/17 16:14:37;;;;;;;;;;;;;;;;;;5026393;28;19917;-67
2022/12/17 16:17:03;;;;;;;;;;;;;;;;;;5025929;28;19921;-69
2022/12/17 16:19:29;;;;;;;;;;;;;;;;;;5027029;28;19917;-70
2022/12/17 16:21:55;;;;;;;;;;;;;;;;;;5026496;28;19913;-69
2022/12/17 16:24:21;;;;;;;;;;;;;;;;;;5026261;28;19924;-70
2022/12/17 16:26:47;;;;;;;;;;;;;;;;;;5026310;28;19987;-67
2022/12/17 16:29:13;;;;;;;;;;;;;;;;;;5026028;28;19917;-69
2022/12/17 16:31:39;;;;;;;;;;;;;;;;;;5026080;28;19913;-68
2022/12/17 16:34:05;;;;;;;;;;;;;;;;;;5029254;28;20581;-68
2022/12/17 16:36:30;;;;;;;;;;;;;;;;;;5029987;28;20467;-69
2022/12/17 16:38:56;;;;;;;;;;;;;;;;;;5030259;28;20000;-69
2022/12/17 16:41:22;;;;;;;;;;;;;;;;;;5030613;28;19948;-68
2022/12/17 16:43:48;;;;;;;;;;;;;;;;;;5030175;28;19959;-68
2022/12/17 16:46:14;;;;;;;;;;;;;;;;;;5030106;28;20362;-69
2022/12/17 16:48:40;;;;;;;;;;;;;;;;;;5030444;28;19959;-69
2022/12/17 16:51:06;;;;;;;;;;;;;;;;;;5030280;28;19923;-69
2022/12/17 16:53:32;;;;;;;;;;;;;;;;;;5029774;28;19936;-69
2022/12/17 16:55:58;;;;;;;;;;;;;;;;;;5029552;28;19954;-70
2022/12/17 16:58:24;;;;;;;;;;;;;;;;;;5030613;28;19928;-69
2022/12/17 17:00:50;;;;;;;;;;;;;;;;;;5029986;28;19925;-68
2022/12/17 17:03:15;;;;;;;;;;;;;;;;;;5030153;28;19917;-69
2022/12/17 17:05:41;;;;;;;;;;;;;;;;;;5029824;28;20278;-69
2022/12/17 17:08:07;;;;;;;;;;;;;;;;;;5029715;28;19917;-66
2022/12/17 17:10:33;;;;;;;;;;;;;;;;;;5029797;28;20338;-69
2022/12/17 17:12:59;;;;;;;;;;;;;;;;;;5030264;28;19991;-69
2022/12/17 17:15:25;;;;;;;;;;;;;;;;;;5029938;28;20274;-69
2022/12/17 17:17:51;;;;;;;;;;;;;;;;;;5029780;28;19925;-68
2022/12/17 17:20:17;;;;;;;;;;;;;;;;;;5031124;28;19916;-68
2022/12/17 17:22:43;;;;;;;;;;;;;;;;;;5031089;28;20015;-68
2022/12/17 17:25:08;;;;;;;;;;;;;;;;;;5031472;28;19964;-69
2022/12/17 17:27:34;;;;;;;;;;;;;;;;;;5030906;28;19945;-68
2022/12/17 17:30:00;;;;;;;;;;;;;;;;;;5031161;28;20381;-69
2022/12/17 17:32:26;;;;;;;;;;;;;;;;;;5031391;28;20054;-69
2022/12/17 17:34:52;;;;;;;;;;;;;;;;;;5031020;28;19975;-68
2022/12/17 17:37:18;;;;;;;;;;;;;;;;;;5031032;28;19921;-69
2022/12/17 17:39:44;;;;;;;;;;;;;;;;;;5031212;28;19971;-69
2022/12/17 17:42:10;;;;;;;;;;;;;;;;;;5031574;28;20027;-67
2022/12/17 17:44:37;;;;;;;;;;;;;;;;;;5031545;28;19955;-68
2022/12/17 17:47:03;;;;;;;;;;;;;;;;;;5024568;28;19916;-67
2022/12/17 17:49:28;;;;;;;;;;;;;;;;;;5031155;28;19917;-70
2022/12/17 17:51:54;;;;;;;;;;;;;;;;;;5030486;28;20293;-71
2022/12/17 17:54:20;;;;;;;;;;;;;;;;;;5031348;28;20003;-68
2022/12/17 17:56:46;;;;;;;;;;;;;;;;;;5031090;28;20656;-69
2022/12/17 17:59:12;;;;;;;;;;;;;;;;;;5030923;28;19921;-68
2022/12/17 18:01:38;;;;;;;;;;;;;;;;;;5030646;28;20323;-69
2022/12/17 18:04:04;;;;;;;;;;;;;;;;;;5030540;28;19909;-68
2022/12/17 18:06:31;;;;;;;;;;;;;;;;;;5030391;28;20011;-68
2022/12/17 18:08:57;;;;;;;;;;;;;;;;;;5031372;28;19948;-68
2022/12/17 18:11:23;;;;;;;;;;;;;;;;;;5030972;28;19956;-68
2022/12/17 18:13:55;;;;;;;;;;;;;;;;;;5030642;28;19925;-69
2022/12/17 18:16:20;;;;;;;;;;;;;;;;;;5030451;28;19919;-68
2022/12/17 18:18:46;;;;;;;;;;;;;;;;;;5029082;28;20613;-71
2022/12/17 18:21:12;;;;;;;;;;;;;;;;;;5030371;28;19913;-69
2022/12/17 18:23:38;;;;;;;;;;;;;;;;;;5030654;28;19978;-67
2022/12/17 18:26:04;;;;;;;;;;;;;;;;;;5030759;28;19948;-71
2022/12/17 18:28:30;;;;;;;;;;;;;;;;;;5030342;28;19917;-71
2022/12/17 18:30:56;;;;;;;;;;;;;;;;;;5030813;28;20007;-69
2022/12/17 18:33:24;;;;;;;;;;;;;;;;;;5029369;28;19914;-69
2022/12/17 18:35:49;;;;;;;;;;;;;;;;;;5029764;28;19913;-71
2022/12/17 18:38:15;;;;;;;;;;;;;;;;;;5030143;28;19971;-70
2022/12/17 18:40:41;;;;;;;;;;;;;;;;;;5030715;28;19975;-72
2022/12/17 18:43:22;;;;;;;;;;;;;;;;;;5030386;28;19920;-69
2022/12/17 18:45:48;;;;;;;;;;;;;;;;;;5027084;28;19936;-72
2022/12/17 18:48:14;;;;;;;;;;;;;;;;;;5029841;28;20374;-73
2022/12/17 18:50:40;;;;;;;;;;;;;;;;;;5030318;28;19913;-72
2022/12/17 18:53:06;;;;;;;;;;;;;;;;;;5030068;28;20271;-71
2022/12/17 18:55:32;;;;;;;;;;;;;;;;;;5029433;28;20070;-70
2022/12/17 18:58:00;;;;;;;;;;;;;;;;;;5029963;28;19943;-73
2022/12/17 19:00:25;;;;;;;;;;;;;;;;;;5029863;28;19967;-71
2022/12/17 19:02:51;;;;;;;;;;;;;;;;;;5030125;28;20320;-74
2022/12/17 19:05:17;;;;;;;;;;;;;;;;;;5029684;28;19920;-74
2022/12/17 19:07:43;;;;;;;;;;;;;;;;;;5030088;28;19963;-74
2022/12/17 19:10:09;;;;;;;;;;;;;;;;;;5029683;28;19991;-73
2022/12/17 19:12:35;;;;;;;;;;;;;;;;;;5029826;28;20407;-74
2022/12/17 19:15:01;;;;;;;;;;;;;;;;;;5029995;28;20530;-74
2022/12/17 19:17:27;;;;;;;;;;;;;;;;;;5029569;28;19964;-73
2022/12/17 19:19:53;;;;;;;;;;;;;;;;;;5029046;28;19909;-71
2022/12/17 19:22:18;;;;;;;;;;;;;;;;;;5029301;28;20320;-75
2022/12/17 19:24:44;;;;;;;;;;;;;;;;;;5029694;28;19910;-75
2022/12/17 19:27:10;;;;;;;;;;;;;;;;;;5029726;28;19940;-72
2022/12/17 19:29:36;;;;;;;;;;;;;;;;;;5029240;28;19910;-74
2022/12/17 19:32:02;;;;;;;;;;;;;;;;;;5029639;28;20259;-74
2022/12/17 19:34:28;;;;;;;;;;;;;;;;;;5029426;28;19909;-73
2022/12/17 19:36:54;;;;;;;;;;;;;;;;;;5029267;28;20390;-73
2022/12/17 19:39:20;;;;;;;;;;;;;;;;;;5029073;28;19917;-73
2022/12/17 19:41:49;;;;;;;;;;;;;;;;;;5029875;28;20298;-73
2022/12/17 19:44:15;;;;;;;;;;;;;;;;;;5029261;28;19913;-75
2022/12/17 19:46:41;;;;;;;;;;;;;;;;;;5029671;28;20472;-75
2022/12/17 19:49:09;;;;;;;;;;;;;;;;;;5028930;28;20405;-75
2022/12/17 19:51:35;;;;;;;;;;;;;;;;;;5022546;28;20010;-77
2022/12/17 19:54:01;;;;;;;;;;;;;;;;;;5028365;28;19913;-74
2022/12/17 19:56:27;;;;;;;;;;;;;;;;;;5029024;28;20345;-74
2022/12/17 19:58:53;;;;;;;;;;;;;;;;;;5029305;28;20440;-74
2022/12/17 20:01:19;;;;;;;;;;;;;;;;;;5029137;28;19916;-77
2022/12/17 20:03:44;;;;;;;;;;;;;;;;;;5029033;28;20374;-68
2022/12/17 20:06:10;;;;;;;;;;;;;;;;;;5029123;28;19920;-68
2022/12/17 20:08:36;;;;;;;;;;;;;;;;;;5030466;28;20370;-68
2022/12/17 20:11:02;;;;;;;;;;;;;;;;;;5032988;28;19924;-68
2022/12/17 20:13:28;;;;;;;;;;;;;;;;;;5032715;28;19929;-69
2022/12/17 20:15:54;;;;;;;;;;;;;;;;;;5032463;28;19921;-68
2022/12/17 20:18:20;;;;;;;;;;;;;;;;;;5032480;28;20015;-67
2022/12/17 20:20:46;;;;;;;;;;;;;;;;;;5033057;28;19913;-67
2022/12/17 20:23:12;;;;;;;;;;;;;;;;;;5032706;28;19963;-67
2022/12/17 20:25:37;;;;;;;;;;;;;;;;;;5026352;28;19913;-67
2022/12/17 20:28:03;;;;;;;;;;;;;;;;;;5032969;28;19913;-66
2022/12/17 20:30:29;;;;;;;;;;;;;;;;;;5032419;28;19996;-67
2022/12/17 20:32:55;;;;;;;;;;;;;;;;;;5032468;28;19909;-67
2022/12/17 20:35:21;;;;;;;;;;;;;;;;;;5032404;28;19916;-67
2022/12/17 20:37:47;;;;;;;;;;;;;;;;;;5032687;28;19928;-65
2022/12/17 20:40:13;;;;;;;;;;;;;;;;;;5032439;28;19972;-66
2022/12/17 20:42:39;;;;;;;;;;;;;;;;;;5032283;28;19917;-67
2022/12/17 20:45:04;;;;;;;;;;;;;;;;;;5032195;28;19913;-66
2022/12/17 20:47:30;;;;;;;;;;;;;;;;;;5032592;28;19914;-66
2022/12/17 20:49:56;;;;;;;;;;;;;;;;;;5032129;28;19916;-67
2022/12/17 20:52:22;;;;;;;;;;;;;;;;;;5032357;28;19909;-64
2022/12/17 20:54:48;;;;;;;;;;;;;;;;;;5032768;28;20007;-65
2022/12/17 20:57:14;;;;;;;;;;;;;;;;;;5032016;28;19921;-64
2022/12/17 20:59:40;;;;;;;;;;;;;;;;;;5032017;28;19913;-64
2022/12/17 21:02:06;;;;;;;;;;;;;;;;;;5032309;28;19960;-65
2022/12/17 21:04:32;;;;;;;;;;;;;;;;;;5031917;28;19955;-66
2022/12/17 21:06:58;;;;;;;;;;;;;;;;;;5031658;28;20004;-65
2022/12/17 21:09:24;;;;;;;;;;;;;;;;;;5031967;28;20048;-65
2022/12/17 21:11:50;;;;;;;;;;;;;;;;;;5032428;28;19963;-65
2022/12/17 21:14:16;;;;;;;;;;;;;;;;;;5031044;28;19986;-64
2022/12/17 21:16:41;;;;;;;;;;;;;;;;;;5031046;28;19924;-65
2022/12/17 21:19:07;;;;;;;;;;;;;;;;;;5030760;28;19913;-65
2022/12/17 21:21:33;;;;;;;;;;;;;;;;;;5031790;28;19909;-67
2022/12/17 21:24:00;;;;;;;;;;;;;;;;;;5031635;28;19935;-67
2022/12/17 21:26:26;;;;;;;;;;;;;;;;;;5025629;28;19920;-67
2022/12/17 21:28:52;;;;;;;;;;;;;;;;;;5031293;28;19917;-65
2022/12/17 21:31:17;;;;;;;;;;;;;;;;;;5031084;28;19909;-65
2022/12/17 21:33:45;;;;;;;;;;;;;;;;;;5031562;28;20322;-64
2022/12/17 21:36:11;;;;;;;;;;;;;;;;;;5031221;28;20364;-66
2022/12/17 21:38:37;;;;;;;;;;;;;;;;;;5031746;28;20063;-66
2022/12/17 21:41:02;;;;;;;;;;;;;;;;;;5031669;28;20274;-66
2022/12/17 21:43:28;;;;;;;;;;;;;;;;;;5031867;28;20382;-66
2022/12/17 21:45:54;;;;;;;;;;;;;;;;;;5031137;28;19967;-67
2022/12/17 21:48:20;;;;;;;;;;;;;;;;;;5031617;28;19967;-67
2022/12/17 21:50:46;;;;;;;;;;;;;;;;;;5031582;28;20406;-68
2022/12/17 21:53:12;;;;;;;;;;;;;;;;;;5030851;28;20527;-66
2022/12/17 21:55:38;;;;;;;;;;;;;;;;;;5029609;28;19917;-66
2022/12/17 21:58:04;;;;;;;;;;;;;;;;;;5029849;28;19921;-66
2022/12/17 22:00:30;;;;;;;;;;;;;;;;;;5031066;28;19917;-63
2022/12/17 22:02:56;;;;;;;;;;;;;;;;;;5030935;28;19917;-67
2022/12/17 22:05:22;;;;;;;;;;;;;;;;;;5031123;28;20004;-64
2022/12/17 22:07:48;;;;;;;;;;;;;;;;;;5030933;28;20339;-64
2022/12/17 22:10:13;;;;;;;;;;;;;;;;;;5031409;28;20392;-66
2022/12/17 22:15:24;;;;;;;;;;;;;;;;;;5030585;28;20405;-67
2022/12/17 22:17:50;;;;;;;;;;;;;;;;;;5031133;28;19925;-65
2022/12/17 22:20:16;;;;;;;;;;;;;;;;;;5031274;28;19936;-66
2022/12/17 22:22:42;;;;;;;;;;;;;;;;;;5031074;28;19971;-60
2022/12/17 22:25:08;;;;;;;;;;;;;;;;;;5030875;28;20385;-66
2022/12/17 22:27:33;;;;;;;;;;;;;;;;;;5030692;28;19913;-63
2022/12/17 22:32:59;;;;;;;;;;;;;;;;;;5030785;28;19962;-64
2022/12/17 22:35:25;;;;;;;;;;;;;;;;;;5024521;28;19924;-66
2022/12/17 22:37:51;;;;;;;;;;;;;;;;;;5030655;28;19917;-66
2022/12/17 22:40:19;;;;;;;;;;;;;;;;;;5030799;28;19929;-64
2022/12/17 22:45:29;;;;;;;;;;;;;;;;;;5030745;28;19916;-65
2022/12/17 22:47:55;;;;;;;;;;;;;;;;;;5030770;28;19909;-65
2022/12/17 22:50:21;;;;;;;;;;;;;;;;;;5030530;28;19944;-65
2022/12/17 22:52:47;;;;;;;;;;;;;;;;;;5031220;28;20011;-64
2022/12/17 22:55:13;;;;;;;;;;;;;;;;;;5029695;28;19991;-67
2022/12/17 22:57:38;;;;;;;;;;;;;;;;;;5030137;28;19943;-67
2022/12/17 23:00:04;;;;;;;;;;;;;;;;;;5030106;28;20381;-66
2022/12/17 23:02:32;;;;;;;;;;;;;;;;;;5030710;28;19913;-64
2022/12/17 23:04:57;;;;;;;;;;;;;;;;;;5030405;28;19913;-66
2022/12/17 23:07:23;;;;;;;;;;;;;;;;;;5030204;28;20445;-67
2022/12/17 23:09:49;;;;;;;;;;;;;;;;;;5029839;28;19913;-66
2022/12/17 23:15:00;;;;;;;;;;;;;;;;;;5029720;28;19939;-66
2022/12/17 23:17:26;;;;;;;;;;;;;;;;;;5030635;28;20652;-67
2022/12/17 23:19:53;;;;;;;;;;;;;;;;;;5028765;28;20147;-66
2022/12/17 23:22:19;;;;;;;;;;;;;;;;;;5029749;28;19909;-67
2022/12/17 23:24:45;;;;;;;;;;;;;;;;;;5030551;28;20281;-67
2022/12/17 23:27:11;;;;;;;;;;;;;;;;;;5028183;28;19917;-67
2022/12/17 23:29:37;;;;;;;;;;;;;;;;;;5029883;28;19956;-67
2022/12/17 23:32:03;;;;;;;;;;;;;;;;;;5030244;28;19913;-67
2022/12/17 23:34:29;;;;;;;;;;;;;;;;;;5029639;28;19913;-68
2022/12/17 23:36:55;;;;;;;;;;;;;;;;;;5029915;28;19913;-64
2022/12/17 23:39:20;;;;;;;;;;;;;;;;;;5029645;28;19909;-67
2022/12/17 23:41:46;;;;;;;;;;;;;;;;;;5029018;28;19909;-65
2022/12/17 23:44:12;;;;;;;;;;;;;;;;;;5022721;28;19960;-67
2022/12/17 23:46:38;;;;;;;;;;;;;;;;;;5029714;28;20350;-68
2022/12/17 23:49:05;;;;;;;;;;;;;;;;;;5029607;28;19914;-68
2022/12/17 23:51:30;;;;;;;;;;;;;;;;;;5029589;28;20343;-67
2022/12/17 23:53:56;;;;;;;;;;;;;;;;;;5029786;28;20000;-65
2022/12/17 23:56:22;;;;;;;;;;;;;;;;;;5028999;28;19908;-66
2022/12/17 23:58:48;;;;;;;;;;;;;;;;;;5029624;28;19921;-66
